Time;durP1;ratioP1;P1;durP2;ratioP2;P2;SDS_P1;SDS_P2;PMS_P1;PMS_P2;Temp;Humidity;BMP_temperature;BMP_pressure;BME280_temperature;BME280_humidity;BME280_pressure;Samples;Min_cycle;Max_cycle;Signal;HPM_P1;HPM_P2
2023/10/27 00:01:16;;;;;;;5.13;1.00;;;;;;;;;;5016735;28;20092;-87
2023/10/27 00:03:42;;;;;;;9.27;0.82;;;;;;;;;;5037058;28;20018;-87
2023/10/27 00:06:08;;;;;;;8.52;0.77;;;;;;;;;;5051895;28;20195;-85
2023/10/27 00:08:33;;;;;;;7.30;1.38;;;10.20;99.90;;;;;;5039348;28;20052;-86
2023/10/27 00:11:05;;;;;;;3.95;0.82;;;;;;;;;;5036712;28;20033;-87
2023/10/27 00:13:31;;;;;;;7.63;1.00;;;;;;;;;;5023556;28;20144;-84
2023/10/27 00:15:57;;;;;;;1.83;0.47;;;;;;;;;;5016005;28;20440;-84
2023/10/27 00:18:23;;;;;;;3.63;0.77;;;;;;;;;;5018025;28;20048;-86
2023/10/27 00:20:49;;;;;;;5.85;0.60;;;;;;;;;;5021480;28;20025;-85
2023/10/27 00:23:15;;;;;;;2.90;0.68;;;;;;;;;;5014840;28;20248;-84
2023/10/27 00:25:41;;;;;;;9.30;0.75;;;10.60;99.90;;;;;;5014936;28;20033;-85
2023/10/27 00:28:07;;;;;;;8.95;1.05;;;;;;;;;;5020230;28;20045;-85
2023/10/27 00:30:33;;;;;;;3.50;0.90;;;;;;;;;;5012246;28;20030;-84
2023/10/27 00:32:59;;;;;;;7.03;0.88;;;;;;;;;;5011302;28;20200;-85
2023/10/27 00:35:25;;;;;;;5.07;1.02;;;;;;;;;;5014510;28;20068;-85
2023/10/27 00:37:51;;;;;;;6.53;0.77;;;;;;;;;;5035902;28;20066;-85
2023/10/27 00:40:17;;;;;;;6.72;0.73;;;;;;;;;;5033419;28;20171;-83
2023/10/27 00:42:42;;;;;;;1.75;0.55;;;10.60;99.90;;;;;;5015645;28;20333;-83
2023/10/27 00:45:08;;;;;;;4.90;0.50;;;10.50;99.90;;;;;;5013327;28;20022;-83
2023/10/27 00:47:34;;;;;;;7.40;0.80;;;;;;;;;;5010429;28;20030;-85
2023/10/27 00:50:01;;;;;;;4.15;0.63;;;10.40;99.90;;;;;;5012378;28;20021;-84
2023/10/27 00:52:27;;;;;;;8.80;0.85;;;10.80;99.90;;;;;;5020880;28;20037;-85
2023/10/27 00:54:54;;;;;;;1.48;0.80;;;10.10;99.90;;;;;;5018221;28;20476;-84
2023/10/27 00:57:22;;;;;;;3.25;0.40;;;10.50;99.90;;;;;;5018621;28;20083;-85
2023/10/27 00:59:50;;;;;;;3.35;0.52;;;;;;;;;;5026690;28;20037;-86
2023/10/27 01:02:17;;;;;;;2.65;0.43;;;;;;;;;;5012640;28;20029;-86
2023/10/27 01:04:43;;;;;;;4.10;0.70;;;;;;;;;;5017901;28;20037;-84
2023/10/27 01:07:09;;;;;;;8.32;1.10;;;;;;;;;;5016651;28;20108;-84
2023/10/27 01:09:35;;;;;;;3.00;0.60;;;;;;;;;;5025385;28;20037;-84
2023/10/27 01:12:01;;;;;;;7.43;1.33;;;;;;;;;;5019795;28;20088;-83
2023/10/27 01:14:27;;;;;;;3.55;0.52;;;;;;;;;;5005524;28;20583;-84
2023/10/27 01:16:54;;;;;;;4.72;0.63;;;;;;;;;;5016462;28;20031;-85
2023/10/27 01:19:20;;;;;;;4.82;0.88;;;;;;;;;;5013595;28;20033;-85
2023/10/27 01:21:46;;;;;;;4.53;1.67;;;;;;;;;;5022622;28;20033;-86
2023/10/27 01:24:12;;;;;;;2.08;0.50;;;;;;;;;;5037506;28;20029;-86
2023/10/27 01:26:38;;;;;;;1.30;0.43;;;;;;;;;;5032855;28;20057;-84
2023/10/27 01:29:04;;;;;;;6.57;0.80;;;;;;;;;;5016075;28;20063;-85
2023/10/27 01:31:30;;;;;;;3.88;0.90;;;10.10;99.90;;;;;;5010123;28;20030;-85
2023/10/27 01:33:56;;;;;;;6.22;0.93;;;;;;;;;;5013844;28;20041;-85
2023/10/27 01:36:22;;;;;;;2.20;0.60;;;;;;;;;;5019351;28;20036;-84
2023/10/27 01:38:48;;;;;;;13.68;1.38;;;;;;;;;;5013706;28;20030;-85
2023/10/27 01:41:14;;;;;;;3.92;1.02;;;;;;;;;;5015171;28;20557;-84
2023/10/27 01:43:39;;;;;;;3.75;0.52;;;;;;;;;;5025803;28;20036;-87
2023/10/27 01:46:05;;;;;;;9.90;0.60;;;;;;;;;;5016920;28;20077;-86
2023/10/27 01:48:31;;;;;;;3.28;0.50;;;;;;;;;;5005967;28;20026;-84
2023/10/27 01:50:57;;;;;;;2.90;0.68;;;;;;;;;;5008334;28;20029;-86
2023/10/27 01:53:23;;;;;;;3.10;0.52;;;;;;;;;;5008326;28;20654;-84
2023/10/27 01:55:49;;;;;;;2.92;1.08;;;;;;;;;;5011876;28;20400;-85
2023/10/27 01:58:15;;;;;;;6.75;1.40;;;;;;;;;;5013879;28;20036;-86
2023/10/27 02:00:41;;;;;;;0.43;0.30;;;;;;;;;;5011219;28;20029;-84
2023/10/27 02:03:07;;;;;;;4.20;0.73;;;;;;;;;;5022287;28;20041;-85
2023/10/27 02:05:33;;;;;;;4.72;0.80;;;;;;;;;;5020485;28;20030;-85
2023/10/27 02:08:00;;;;;;;3.22;0.80;;;;;;;;;;5010883;28;20469;-86
2023/10/27 02:10:26;;;;;;;3.90;1.00;;;;;;;;;;5008321;28;20026;-84
2023/10/27 02:12:52;;;;;;;6.32;1.00;;;;;;;;;;5012100;28;20030;-84
2023/10/27 02:15:18;;;;;;;4.43;1.02;;;;;;;;;;5016596;28;20212;-84
2023/10/27 02:17:44;;;;;;;3.15;0.70;;;;;;;;;;5019566;28;20034;-85
2023/10/27 02:20:10;;;;;;;2.88;0.80;;;;;;;;;;5020071;28;20030;-84
2023/10/27 02:22:36;;;;;;;2.55;0.32;;;;;;;;;;5018509;28;20526;-84
2023/10/27 02:25:03;;;;;;;3.08;0.68;;;;;;;;;;5012689;28;20045;-85
2023/10/27 02:27:31;;;;;;;0.90;0.40;;;;;;;;;;5014401;28;20049;-83
2023/10/27 02:29:57;;;;;;;10.82;0.68;;;;;;;;;;5023639;28;20085;-84
2023/10/27 02:32:23;;;;;;;3.08;0.65;;;;;;;;;;5018165;28;20163;-85
2023/10/27 02:34:49;;;;;;;12.10;0.80;;;;;;;;;;5019918;28;20021;-84
2023/10/27 02:37:15;;;;;;;6.25;1.58;;;;;;;;;;5016398;28;20205;-84
2023/10/27 02:39:41;;;;;;;2.47;0.30;;;;;;;;;;5024042;28;20026;-84
2023/10/27 02:42:07;;;;;;;4.60;1.70;;;;;;;;;;5026000;28;20033;-84
2023/10/27 02:44:33;;;;;;;5.40;0.60;;;;;;;;;;5022355;28;20496;-83
2023/10/27 02:46:59;;;;;;;5.35;2.15;;;;;;;;;;5014077;28;20040;-84
2023/10/27 02:49:25;;;;;;;8.18;0.80;;;;;;;;;;5010266;28;20276;-82
2023/10/27 02:51:51;;;;;;;3.78;0.70;;;;;;;;;;5019505;28;20029;-82
2023/10/27 02:54:17;;;;;;;3.25;0.80;;;;;;;;;;5017049;28;20115;-82
2023/10/27 02:56:43;;;;;;;10.30;1.67;;;;;;;;;;5008427;28;20187;-82
2023/10/27 02:59:09;;;;;;;7.82;1.00;;;;;;;;;;5006553;28;20068;-83
2023/10/27 03:01:35;;;;;;;1.20;0.75;;;;;;;;;;5016669;28;20037;-82
2023/10/27 03:04:01;;;;;;;2.72;0.80;;;10.70;99.90;;;;;;5007175;28;20022;-83
2023/10/27 03:06:27;;;;;;;3.70;0.55;;;;;;;;;;5032019;28;20116;-82
2023/10/27 03:08:53;;;;;;;3.20;0.68;;;;;;;;;;5009382;28;20678;-83
2023/10/27 03:11:19;;;;;;;1.85;0.90;;;;;;;;;;5013099;28;20040;-82
2023/10/27 03:13:45;;;;;;;2.33;1.00;;;;;;;;;;5017788;28;20113;-82
2023/10/27 03:16:11;;;;;;;1.38;0.45;;;;;;;;;;5024795;28;20030;-83
2023/10/27 03:18:37;;;;;;;6.72;0.80;;;;;;;;;;5027628;28;20029;-84
2023/10/27 03:21:03;;;;;;;4.03;0.85;;;;;;;;;;5016016;28;20034;-83
2023/10/27 03:23:29;;;;;;;2.58;0.43;;;10.30;99.90;;;;;;5020858;28;20112;-83
2023/10/27 03:25:55;;;;;;;4.10;0.68;;;;;;;;;;5021561;28;20501;-85
2023/10/27 03:28:21;;;;;;;4.75;0.60;;;;;;;;;;5018651;28;20021;-83
2023/10/27 03:30:51;;;;;;;1.63;0.82;;;;;;;;;;5023397;28;20499;-83
2023/10/27 03:33:17;;;;;;;3.95;0.90;;;;;;;;;;5026474;28;20017;-83
2023/10/27 03:35:44;;;;;;;3.03;0.80;;;10.70;99.90;;;;;;5018379;28;20272;-83
2023/10/27 03:38:10;;;;;;;4.40;0.77;;;10.40;99.90;;;;;;5023385;28;20116;-83
2023/10/27 03:40:37;;;;;;;6.45;0.73;;;10.40;99.90;;;;;;5022061;28;20045;-82
2023/10/27 03:43:03;;;;;;;2.47;0.80;;;;;;;;;;5013528;28;20021;-82
2023/10/27 03:45:29;;;;;;;2.67;0.90;;;;;;;;;;5024148;28;20027;-83
2023/10/27 03:47:55;;;;;;;5.63;1.52;;;;;;;;;;5014441;28;20036;-82
2023/10/27 03:50:21;;;;;;;1.38;0.70;;;;;;;;;;5021669;28;20038;-83
2023/10/27 03:52:47;;;;;;;4.03;0.93;;;;;;;;;;5013209;28;20025;-84
2023/10/27 03:55:13;;;;;;;4.68;1.30;;;;;;;;;;5005487;28;20488;-82
2023/10/27 03:57:40;;;;;;;2.00;0.90;;;10.80;99.90;;;;;;5010417;28;20120;-82
2023/10/27 04:00:07;;;;;;;3.80;1.15;;;10.50;99.90;;;;;;5013743;28;20041;-84
2023/10/27 04:02:33;;;;;;;3.58;1.25;;;;;;;;;;5013124;28;20032;-83
2023/10/27 04:04:59;;;;;;;4.63;1.40;;;;;;;;;;4995377;28;20026;-84
2023/10/27 04:07:25;;;;;;;5.88;1.38;;;;;;;;;;4998053;28;20037;-83
2023/10/27 04:09:51;;;;;;;4.15;1.15;;;;;;;;;;5005059;28;20029;-84
2023/10/27 04:12:17;;;;;;;3.20;0.82;;;;;;;;;;4997681;28;20045;-84
2023/10/27 04:14:43;;;;;;;4.65;1.13;;;;;;;;;;4998389;28;20148;-83
2023/10/27 04:17:09;;;;;;;14.07;1.30;;;;;;;;;;4989391;28;20029;-85
2023/10/27 04:19:35;;;;;;;1.60;0.80;;;;;;;;;;4996552;28;20806;-84
2023/10/27 04:22:01;;;;;;;1.75;1.00;;;;;;;;;;5003465;28;20133;-83
2023/10/27 04:24:27;;;;;;;5.55;1.25;;;;;;;;;;5008986;28;20652;-84
2023/10/27 04:26:53;;;;;;;5.18;1.30;;;;;;;;;;5008521;28;21602;-84
2023/10/27 04:29:19;;;;;;;3.17;0.80;;;;;;;;;;5018628;28;20044;-83
2023/10/27 04:31:46;;;;;;;1.90;1.10;;;;;;;;;;5019517;28;20053;-83
2023/10/27 04:34:12;;;;;;;5.38;0.88;;;;;;;;;;5024456;28;20036;-84
2023/10/27 04:36:38;;;;;;;3.63;1.40;;;;;;;;;;5025518;28;20467;-82
2023/10/27 04:39:04;;;;;;;1.58;0.70;;;;;;;;;;5018598;28;20036;-84
2023/10/27 04:41:30;;;;;;;2.40;0.57;;;10.70;99.90;;;;;;5026837;28;20400;-85
2023/10/27 04:43:56;;;;;;;2.97;0.95;;;;;;;;;;5014713;28;20455;-86
2023/10/27 04:46:22;;;;;;;2.80;0.98;;;;;;;;;;5006081;28;20075;-86
2023/10/27 04:48:49;;;;;;;2.67;1.00;;;;;;;;;;5020895;28;20121;-85
2023/10/27 04:51:15;;;;;;;4.10;1.27;;;;;;;;;;5017540;28;20033;-86
2023/10/27 04:53:41;;;;;;;5.13;0.98;;;;;;;;;;5019139;28;20084;-84
2023/10/27 04:56:07;;;;;;;2.10;0.90;;;10.30;99.90;;;;;;5027492;28;20033;-85
2023/10/27 04:58:33;;;;;;;3.55;1.15;;;;;;;;;;5025132;28;20026;-85
2023/10/27 05:00:59;;;;;;;2.10;0.90;;;;;;;;;;5043821;28;20127;-85
2023/10/27 05:03:25;;;;;;;3.35;1.13;;;;;;;;;;5042420;28;20047;-85
2023/10/27 05:05:51;;;;;;;2.53;1.15;;;;;;;;;;5036693;28;20033;-84
2023/10/27 05:08:17;;;;;;;1.40;0.65;;;;;;;;;;5035064;28;20033;-84
2023/10/27 05:10:43;;;;;;;1.63;0.80;;;;;;;;;;5032303;28;20030;-84
2023/10/27 05:13:09;;;;;;;3.13;0.95;;;;;;;;;;5021185;28;20033;-84
2023/10/27 05:15:37;;;;;;;2.90;1.00;;;;;;;;;;5025293;28;20034;-84
2023/10/27 05:18:06;;;;;;;5.25;1.00;;;10.00;99.90;;;;;;5030206;28;20026;-85
2023/10/27 05:20:38;;;;;;;2.88;1.15;;;;;;;;;;5024877;28;20030;-84
2023/10/27 05:23:04;;;;;;;2.88;1.33;;;;;;;;;;5030954;28;20024;-82
2023/10/27 05:25:30;;;;;;;1.55;0.75;;;10.60;99.90;;;;;;5020860;28;20065;-82
2023/10/27 05:27:56;;;;;;;4.05;1.48;;;;;;;;;;5022442;28;20025;-83
2023/10/27 05:30:22;;;;;;;1.52;1.10;;;;;;;;;;5020897;28;20056;-83
2023/10/27 05:32:48;;;;;;;12.25;1.38;;;;;;;;;;5020234;28;20017;-84
2023/10/27 05:35:14;;;;;;;5.72;1.33;;;;;;;;;;5029442;28;20037;-83
2023/10/27 05:37:40;;;;;;;2.50;1.20;;;;;;;;;;5019285;28;20037;-82
2023/10/27 05:40:06;;;;;;;7.13;1.23;;;10.60;99.90;;;;;;5021270;28;20033;-82
2023/10/27 05:42:32;;;;;;;2.65;1.10;;;;;;;;;;5021458;28;20022;-83
2023/10/27 05:44:58;;;;;;;1.77;1.02;;;;;;;;;;5021271;28;20443;-85
2023/10/27 05:47:24;;;;;;;3.88;0.95;;;;;;;;;;5019612;28;20037;-83
2023/10/27 05:49:50;;;;;;;1.63;0.90;;;;;;;;;;5024173;28;20029;-83
2023/10/27 05:52:16;;;;;;;2.53;1.10;;;;;;;;;;5030148;28;20029;-83
2023/10/27 05:54:43;;;;;;;4.75;1.52;;;;;;;;;;5021517;28;20045;-81
2023/10/27 05:57:09;;;;;;;2.00;1.00;;;;;;;;;;5026765;28;20076;-81
2023/10/27 05:59:36;;;;;;;2.58;1.10;;;;;;;;;;5031213;28;20095;-82
2023/10/27 06:02:02;;;;;;;4.78;1.15;;;;;;;;;;5030585;28;20034;-84
2023/10/27 06:04:28;;;;;;;3.83;1.00;;;;;;;;;;5039455;28;20095;-84
2023/10/27 06:06:54;;;;;;;5.85;1.45;;;;;;;;;;5036743;28;20025;-83
2023/10/27 06:09:20;;;;;;;2.28;1.58;;;;;;;;;;5036751;28;20038;-84
2023/10/27 06:11:46;;;;;;;6.60;1.20;;;;;;;;;;5032707;28;20034;-84
2023/10/27 06:14:12;;;;;;;4.25;1.88;;;;;;;;;;5038371;28;20033;-84
2023/10/27 06:16:37;;;;;;;3.65;1.92;;;;;;;;;;5035408;28;20041;-83
2023/10/27 06:19:03;;;;;;;3.60;1.25;;;;;;;;;;5035784;28;20487;-84
2023/10/27 06:21:29;;;;;;;2.92;1.10;;;;;;;;;;5037084;28;20550;-84
2023/10/27 06:23:56;;;;;;;4.50;1.30;;;;;;;;;;5032856;28;20041;-84
2023/10/27 06:26:22;;;;;;;5.38;1.55;;;;;;;;;;5036403;28;20034;-83
2023/10/27 06:28:48;;;;;;;6.70;1.80;;;;;;;;;;5035008;28;20096;-84
2023/10/27 06:31:14;;;;;;;4.72;1.50;;;;;;;;;;5032286;28;20057;-83
2023/10/27 06:33:40;;;;;;;5.93;2.20;;;;;;;;;;5035271;28;20060;-84
2023/10/27 06:36:06;;;;;;;6.72;1.42;;;;;;;;;;5035180;28;20048;-84
2023/10/27 06:38:32;;;;;;;3.22;1.50;;;;;;;;;;5031168;28;20052;-84
2023/10/27 06:40:58;;;;;;;2.95;1.25;;;;;;;;;;5037336;28;20025;-84
2023/10/27 06:43:24;;;;;;;5.47;1.23;;;;;;;;;;5035043;28;20041;-83
2023/10/27 06:45:50;;;;;;;2.08;1.42;;;;;;;;;;5037393;28;20041;-84
2023/10/27 06:48:16;;;;;;;5.85;1.55;;;;;;;;;;5033935;28;20029;-84
2023/10/27 06:50:42;;;;;;;2.83;1.20;;;;;;;;;;5037860;28;20036;-84
2023/10/27 06:53:08;;;;;;;7.30;2.20;;;;;;;;;;5038318;28;20026;-83
2023/10/27 06:55:34;;;;;;;4.97;1.40;;;;;;;;;;5029517;28;20503;-83
2023/10/27 06:58:00;;;;;;;1.38;0.50;;;;;;;;;;5031455;28;20040;-84
2023/10/27 07:00:26;;;;;;;2.50;0.98;;;;;;;;;;5033506;28;20518;-84
2023/10/27 07:02:52;;;;;;;2.25;0.80;;;;;;;;;;5030818;28;20025;-83
2023/10/27 07:05:18;;;;;;;6.82;1.63;;;;;;;;;;5034207;28;20033;-84
2023/10/27 07:07:45;;;;;;;5.70;1.70;;;;;;;;;;5035994;28;20059;-84
2023/10/27 07:10:12;;;;;;;23.70;7.20;;;;;;;;;;5035379;28;20056;-84
2023/10/27 07:12:38;;;;;;;19.80;6.93;;;;;;;;;;5033717;28;20025;-83
2023/10/27 07:15:04;;;;;;;6.20;1.63;;;;;;;;;;5031138;28;20037;-83
2023/10/27 07:17:30;;;;;;;3.15;1.13;;;;;;;;;;5031901;28;20029;-83
2023/10/27 07:19:56;;;;;;;4.88;1.95;;;;;;;;;;5030086;28;20033;-82
2023/10/27 07:22:22;;;;;;;2.67;1.08;;;;;;;;;;5033796;28;20025;-83
2023/10/27 07:24:48;;;;;;;1.98;0.52;;;;;;;;;;5033834;28;20072;-85
2023/10/27 07:27:14;;;;;;;1.80;0.45;;;;;;;;;;5032598;28;20060;-84
2023/10/27 07:29:40;;;;;;;1.35;0.70;;;;;;;;;;5035249;28;20053;-83
2023/10/27 07:32:06;;;;;;;2.67;0.85;;;;;;;;;;5031452;28;20044;-83
2023/10/27 07:34:32;;;;;;;1.85;0.55;;;;;;;;;;5033240;28;20472;-83
2023/10/27 07:36:58;;;;;;;2.10;0.40;;;;;;;;;;5032590;28;20033;-84
2023/10/27 07:39:24;;;;;;;1.63;0.60;;;;;;;;;;5035112;28;20515;-83
2023/10/27 07:41:51;;;;;;;1.90;0.45;;;;;;;;;;5030602;28;20484;-83
2023/10/27 07:44:17;;;;;;;3.15;0.45;;;;;;;;;;5034865;28;20040;-83
2023/10/27 07:46:43;;;;;;;1.63;0.60;;;;;;;;;;5033121;28;20075;-83
2023/10/27 07:49:09;;;;;;;2.15;0.52;;;;;;;;;;5031277;28;20041;-82
2023/10/27 07:51:35;;;;;;;2.25;0.85;;;;;;;;;;5030253;28;20064;-83
2023/10/27 07:54:01;;;;;;;1.50;0.55;;;;;;;;;;5032915;28;20391;-83
2023/10/27 07:56:29;;;;;;;0.43;0.22;;;;;;;;;;5028917;28;20432;-82
2023/10/27 07:58:55;;;;;;;1.70;0.50;;;;;;;;;;5030335;28;20030;-82
2023/10/27 08:01:21;;;;;;;4.07;1.52;;;;;;;;;;5028483;28;20025;-82
2023/10/27 08:03:47;;;;;;;5.30;1.98;;;;;;;;;;5029138;28;20040;-84
2023/10/27 08:06:13;;;;;;;11.30;3.40;;;;;;;;;;5033027;28;20033;-82
2023/10/27 08:08:40;;;;;;;3.28;1.25;;;;;;;;;;5030627;28;20029;-83
2023/10/27 08:11:06;;;;;;;1.17;0.40;;;;;;;;;;5031276;28;21179;-82
2023/10/27 08:13:32;;;;;;;1.15;0.40;;;;;;;;;;5028145;28;20037;-82
2023/10/27 08:16:02;;;;;;;1.17;0.32;;;;;;;;;;5027626;28;20251;-83
2023/10/27 08:18:27;;;;;;;0.55;0.30;;;;;;;;;;5030143;28;20033;-83
2023/10/27 08:20:55;;;;;;;0.73;0.30;;;;;;;;;;5030569;28;20080;-81
2023/10/27 08:23:21;;;;;;;0.52;0.20;;;;;;;;;;5029978;28;20022;-84
2023/10/27 08:25:51;;;;;;;0.40;0.13;;;;;;;;;;5029357;28;20215;-84
2023/10/27 08:28:17;;;;;;;0.28;0.17;;;;;;;;;;5030806;28;20029;-82
2023/10/27 08:30:43;;;;;;;0.60;0.30;;;;;;;;;;5035133;28;20040;-84
2023/10/27 08:33:09;;;;;;;0.93;0.10;;;;;;;;;;5032238;28;20502;-83
2023/10/27 08:35:35;;;;;;;1.00;0.30;;;;;;;;;;5032239;28;20029;-83
2023/10/27 08:38:01;;;;;;;0.32;0.10;;;;;;;;;;5040166;28;20016;-83
2023/10/27 08:40:31;;;;;;;0.52;0.25;;;12.00;99.90;;;;;;5038265;28;20033;-84
2023/10/27 08:42:57;;;;;;;0.20;0.10;;;;;;;;;;5040298;28;20017;-82
2023/10/27 08:45:28;;;;;;;0.32;0.20;;;;;;;;;;5039229;28;20018;-80
2023/10/27 08:47:54;;;;;;;0.40;0.10;;;;;;;;;;5037688;28;20036;-82
2023/10/27 08:50:21;;;;;;;0.05;0.05;;;;;;;;;;5038628;28;20025;-83
2023/10/27 08:52:48;;;;;;;1.13;0.17;;;;;;;;;;5038229;28;20037;-82
2023/10/27 08:55:15;;;;;;;0.28;0.10;;;;;;;;;;5032209;28;20021;-83
2023/10/27 08:57:41;;;;;;;9.55;0.25;;;;;;;;;;5030714;28;20492;-82
2023/10/27 09:00:07;;;;;;;1.65;0.30;;;;;;;;;;5031635;28;20030;-83
2023/10/27 09:02:34;;;;;;;0.65;0.28;;;;;;;;;;5034259;28;20029;-83
2023/10/27 09:05:08;;;;;;;2.15;0.50;;;;;;;;;;5026138;28;20022;-81
2023/10/27 09:07:34;;;;;;;0.60;0.20;;;;;;;;;;5022290;28;20029;-82
2023/10/27 09:10:01;;;;;;;1.45;0.15;;;12.00;99.90;;;;;;5029438;28;20018;-82
2023/10/27 09:12:30;;;;;;;0.20;0.10;;;12.70;99.90;;;;;;5029752;28;20052;-82
2023/10/27 09:15:00;;;;;;;0.77;0.20;;;12.40;99.90;;;;;;5032609;28;20536;-82
2023/10/27 09:17:26;;;;;;;0.40;0.10;;;;;;;;;;5022618;28;20096;-82
2023/10/27 09:20:09;;;;;;;0.63;0.20;;;;;;;;;;5029410;28;20056;-82
2023/10/27 09:22:36;;;;;;;0.57;0.32;;;;;;;;;;5032621;28;20018;-83
2023/10/27 09:25:17;;;;;;;2.80;0.17;;;12.80;99.90;;;;;;5031637;28;20035;-82
2023/10/27 09:27:44;;;;;;;1.10;0.10;;;;;;;;;;5030158;28;20460;-82
2023/10/27 09:30:26;;;;;;;1.23;0.20;;;12.90;99.90;;;;;;5030202;28;20117;-83
2023/10/27 09:32:52;;;;;;;0.63;0.10;;;;;;;;;;5032603;28;20111;-84
2023/10/27 09:35:18;;;;;;;1.92;0.22;;;;;;;;;;5031880;28;20041;-81
2023/10/27 09:37:46;;;;;;;0.20;0.20;;;11.90;99.90;;;;;;5029066;28;20026;-82
2023/10/27 09:40:13;;;;;;;1.13;0.20;;;12.90;99.90;;;;;;5027044;28;20017;-81
2023/10/27 09:42:40;;;;;;;0.73;0.40;;;12.20;99.90;;;;;;5028630;28;20025;-82
2023/10/27 09:45:16;;;;;;;0.28;0.15;;;12.70;99.90;;;;;;5027500;28;20029;-82
2023/10/27 09:47:42;;;;;;;0.30;0.13;;;;;;;;;;5025996;28;20030;-82
2023/10/27 09:50:12;;;;;;;0.22;0.13;;;;;;;;;;5027562;28;20923;-81
2023/10/27 09:52:41;;;;;;;1.35;0.55;;;12.40;99.90;;;;;;5030146;28;20033;-81
2023/10/27 09:55:08;;;;;;;0.30;0.10;;;;;;;;;;5029843;28;20033;-81
2023/10/27 09:57:34;;;;;;;0.60;0.10;;;;;;;;;;5028027;28;20037;-82
2023/10/27 10:00:01;;;;;;;0.57;0.32;;;11.70;99.90;;;;;;5028725;28;20025;-82
2023/10/27 10:02:29;;;;;;;0.65;0.32;;;12.20;99.90;;;;;;5026644;28;20384;-81
2023/10/27 10:04:55;;;;;;;0.50;0.30;;;12.20;99.90;;;;;;5034235;28;20025;-82
2023/10/27 10:07:27;;;;;;;3.60;0.30;;;;;;;;;;5032518;28;20468;-81
2023/10/27 10:09:53;;;;;;;2.58;0.30;;;;;;;;;;5028963;28;20105;-82
2023/10/27 10:12:19;;;;;;;0.90;0.32;;;;;;;;;;5027618;28;20120;-81
2023/10/27 10:14:45;;;;;;;1.65;0.35;;;;;;;;;;5032694;28;20030;-82
2023/10/27 10:17:11;;;;;;;3.92;0.95;;;12.10;99.90;;;;;;5027496;28;20438;-81
2023/10/27 10:19:50;;;;;;;2.40;0.38;;;12.00;99.90;;;;;;5029959;28;20069;-81
2023/10/27 10:22:40;;;;;;;0.55;0.25;;;12.00;99.90;;;;;;5029938;28;20139;-82
2023/10/27 10:25:17;;;;;;;0.55;0.15;;;12.10;99.90;;;;;;5025404;28;20410;-83
2023/10/27 10:28:25;;;;;;;4.43;0.50;;;12.30;99.90;;;;;;5025898;28;20116;-82
2023/10/27 10:31:16;;;;;;;1.90;0.40;;;12.30;99.90;;;;;;5014120;28;20041;-81
2023/10/27 10:33:45;;;;;;;0.40;0.30;;;;;;;;;;5024650;28;20029;-81
2023/10/27 10:36:22;;;;;;;1.10;0.50;;;12.40;99.90;;;;;;5026025;28;20116;-82
2023/10/27 10:38:51;;;;;;;0.60;0.15;;;12.40;99.90;;;;;;5026946;28;20112;-81
2023/10/27 10:41:18;;;;;;;0.90;0.30;;;12.50;99.90;;;;;;5023108;28;20476;-81
2023/10/27 10:43:44;;;;;;;3.55;0.40;;;;;;;;;;5027407;28;20060;-81
2023/10/27 10:46:11;;;;;;;10.18;0.30;;;;;;;;;;5026962;28;20052;-80
2023/10/27 10:48:46;;;;;;;0.35;0.10;;;13.10;99.90;;;;;;5031310;28;20026;-83
2023/10/27 10:51:46;;;;;;;5.22;0.40;;;;;;;;;;5027228;28;20030;-82
2023/10/27 10:54:16;;;;;;;1.65;0.35;;;;;;;;;;5024025;28;20056;-80
2023/10/27 10:56:42;;;;;;;0.28;0.28;;;;;;;;;;5017682;28;20060;-82
2023/10/27 10:59:08;;;;;;;1.17;0.20;;;;;;;;;;5024975;28;20030;-81
2023/10/27 11:01:34;;;;;;;0.50;0.17;;;;;;;;;;5021256;28;20512;-82
2023/10/27 11:04:00;;;;;;;0.25;0.10;;;;;;;;;;5027729;28;20029;-82
2023/10/27 11:06:28;;;;;;;1.00;0.20;;;;;;;;;;5025083;28;20059;-82
2023/10/27 11:08:54;;;;;;;1.25;0.30;;;;;;;;;;5029743;28;20030;-82
2023/10/27 11:11:20;;;;;;;0.22;0.20;;;;;;;;;;5026126;28;20087;-82
2023/10/27 11:13:51;;;;;;;4.60;0.50;;;;;;;;;;5023584;28;20140;-81
2023/10/27 11:16:21;;;;;;;0.77;0.17;;;;;;;;;;5048794;28;20090;-80
2023/10/27 11:18:49;;;;;;;0.70;0.32;;;;;;;;;;5050475;28;20029;-81
2023/10/27 11:21:22;;;;;;;1.50;0.40;;;;;;;;;;5040402;28;20498;-83
2023/10/27 11:23:49;;;;;;;1.38;0.35;;;;;;;;;;5042329;28;20029;-82
2023/10/27 11:26:19;;;;;;;1.20;0.35;;;;;;;;;;5041354;28;20033;-84
2023/10/27 11:28:46;;;;;;;0.73;0.30;;;;;;;;;;5041304;28;20021;-83
2023/10/27 11:31:12;;;;;;;6.75;0.52;;;13.70;99.90;;;;;;5044124;28;20060;-85
2023/10/27 11:33:57;;;;;;;3.35;0.30;;;;;;;;;;5041497;28;20546;-83
2023/10/27 11:36:24;;;;;;;2.10;0.38;;;;;;;;;;5042799;28;20064;-83
2023/10/27 11:38:49;;;;;;;0.52;0.20;;;;;;;;;;5043259;28;20052;-84
2023/10/27 11:41:15;;;;;;;0.80;0.38;;;;;;;;;;5037993;28;20030;-83
2023/10/27 11:43:42;;;;;;;8.38;0.65;;;;;;;;;;5042554;28;20263;-83
2023/10/27 11:46:11;;;;;;;0.63;0.30;;;;;;;;;;5038221;28;20511;-84
2023/10/27 11:48:36;;;;;;;0.45;0.20;;;;;;;;;;5041677;28;20052;-83
2023/10/27 11:51:02;;;;;;;9.65;0.80;;;;;;;;;;5038323;28;20040;-83
2023/10/27 11:53:28;;;;;;;2.13;0.30;;;;;;;;;;5030129;28;20044;-85
2023/10/27 11:55:54;;;;;;;1.67;0.30;;;;;;;;;;5034348;28;20045;-85
2023/10/27 11:58:20;;;;;;;4.45;0.80;;;;;;;;;;5032725;28;20021;-82
2023/10/27 12:00:46;;;;;;;0.70;0.28;;;;;;;;;;5031790;28;20021;-82
2023/10/27 12:03:12;;;;;;;5.00;0.30;;;;;;;;;;5028283;28;20033;-80
2023/10/27 12:05:38;;;;;;;2.67;0.52;;;;;;;;;;5030327;28;20041;-82
2023/10/27 12:08:04;;;;;;;2.05;0.40;;;;;;;;;;5027261;28;20061;-83
2023/10/27 12:10:34;;;;;;;0.98;0.38;;;;;;;;;;5015177;28;20103;-81
2023/10/27 12:13:06;;;;;;;2.25;0.47;;;;;;;;;;5030476;28;20025;-82
2023/10/27 12:15:33;;;;;;;1.35;0.50;;;;;;;;;;5031509;28;20366;-82
2023/10/27 12:17:59;;;;;;;1.77;0.75;;;;;;;;;;5029511;28;21965;-82
2023/10/27 12:20:27;;;;;;;4.18;0.40;;;;;;;;;;5030273;28;20455;-84
2023/10/27 12:22:54;;;;;;;2.15;0.30;;;14.30;99.90;;;;;;5019486;28;20025;-84
2023/10/27 12:25:20;;;;;;;2.40;0.47;;;;;;;;;;5027593;28;20093;-80
2023/10/27 12:27:46;;;;;;;1.20;0.50;;;;;;;;;;5025200;28;20113;-82
2023/10/27 12:30:13;;;;;;;0.98;0.20;;;;;;;;;;5029011;28;20034;-81
2023/10/27 12:32:40;;;;;;;2.03;0.30;;;;;;;;;;5028092;28;20033;-82
2023/10/27 12:35:07;;;;;;;3.65;0.52;;;;;;;;;;5035396;28;20033;-84
2023/10/27 12:37:33;;;;;;;2.33;0.57;;;14.40;99.90;;;;;;5034972;28;20044;-83
2023/10/27 12:39:59;;;;;;;0.32;0.10;;;;;;;;;;5022100;28;20037;-83
2023/10/27 12:42:25;;;;;;;4.95;0.40;;;;;;;;;;5025688;28;20245;-82
2023/10/27 12:44:51;;;;;;;3.15;0.30;;;;;;;;;;5026097;28;21474;-82
2023/10/27 12:47:17;;;;;;;0.47;0.25;;;;;;;;;;5034555;28;20033;-82
2023/10/27 12:49:43;;;;;;;2.97;0.52;;;;;;;;;;5029947;28;20587;-84
2023/10/27 12:52:09;;;;;;;0.85;0.20;;;;;;;;;;5034959;28;20037;-84
2023/10/27 12:54:36;;;;;;;2.55;0.60;;;;;;;;;;5031651;28;20029;-83
2023/10/27 12:57:02;;;;;;;3.05;0.88;;;;;;;;;;5033971;28;20084;-82
2023/10/27 12:59:28;;;;;;;2.10;0.60;;;;;;;;;;5020776;28;20049;-84
2023/10/27 13:01:54;;;;;;;1.95;0.68;;;;;;;;;;5031043;28;20029;-83
2023/10/27 13:04:20;;;;;;;0.50;0.20;;;;;;;;;;5020288;28;21693;-83
2023/10/27 13:06:45;;;;;;;2.35;0.40;;;;;;;;;;5036134;28;20033;-82
2023/10/27 13:09:12;;;;;;;1.13;0.32;;;;;;;;;;5024724;28;20026;-84
2023/10/27 13:11:38;;;;;;;5.88;0.28;;;;;;;;;;5035172;28;20116;-88
2023/10/27 13:14:04;;;;;;;1.80;0.20;;;;;;;;;;5026652;28;20022;-83
2023/10/27 13:16:30;;;;;;;0.85;0.20;;;;;;;;;;5036928;28;20261;-83
2023/10/27 13:18:56;;;;;;;1.58;0.65;;;;;;;;;;5034178;28;20412;-83
2023/10/27 13:21:22;;;;;;;2.78;0.50;;;;;;;;;;5032691;28;20044;-81
2023/10/27 13:23:49;;;;;;;0.82;0.20;;;;;;;;;;5030942;28;20449;-82
2023/10/27 13:26:15;;;;;;;1.13;0.40;;;;;;;;;;5029759;28;20025;-82
2023/10/27 13:28:40;;;;;;;2.78;0.25;;;;;;;;;;5040437;28;20045;-83
2023/10/27 13:31:06;;;;;;;1.48;0.57;;;;;;;;;;5033495;28;20033;-85
2023/10/27 13:33:33;;;;;;;2.53;0.30;;;;;;;;;;5030849;28;20299;-80
2023/10/27 13:36:00;;;;;;;1.25;0.30;;;;;;;;;;5038310;28;20033;-83
2023/10/27 13:38:27;;;;;;;0.65;0.20;;;;;;;;;;5036337;28;20099;-83
2023/10/27 13:40:53;;;;;;;1.58;0.68;;;;;;;;;;5035216;28;20821;-83
2023/10/27 13:43:21;;;;;;;4.55;0.30;;;;;;;;;;5029968;28;20057;-81
2023/10/27 13:45:47;;;;;;;2.92;0.60;;;;;;;;;;5038737;28;20068;-82
2023/10/27 13:48:14;;;;;;;2.88;0.40;;;;;;;;;;5042018;28;20073;-82
2023/10/27 13:50:40;;;;;;;2.70;1.10;;;;;;;;;;5042493;28;20022;-84
2023/10/27 13:53:08;;;;;;;0.30;0.10;;;;;;;;;;5038369;28;20450;-81
2023/10/27 13:55:35;;;;;;;0.95;0.20;;;;;;;;;;5038795;28;20033;-81
2023/10/27 13:58:02;;;;;;;1.95;0.10;;;;;;;;;;5042343;28;20026;-80
2023/10/27 14:00:29;;;;;;;0.75;0.30;;;;;;;;;;5038408;28;20042;-80
2023/10/27 14:02:56;;;;;;;2.30;0.40;;;;;;;;;;5038359;28;20075;-80
2023/10/27 14:05:23;;;;;;;2.33;0.60;;;;;;;;;;5036589;28;20622;-81
2023/10/27 14:07:49;;;;;;;0.45;0.13;;;;;;;;;;5035969;28;20034;-80
2023/10/27 14:10:15;;;;;;;2.75;0.25;;;;;;;;;;5037702;28;20037;-81
2023/10/27 14:12:43;;;;;;;0.32;0.20;;;;;;;;;;5038531;28;20585;-82
2023/10/27 14:15:12;;;;;;;3.28;0.68;;;14.40;99.90;;;;;;5034911;28;20131;-81
2023/10/27 14:17:38;;;;;;;3.67;0.30;;;14.50;99.90;;;;;;5029414;28;20030;-81
2023/10/27 14:20:05;;;;;;;2.13;0.50;;;;;;;;;;5033501;28;20072;-80
2023/10/27 14:22:31;;;;;;;3.20;0.20;;;;;;;;;;5030911;28;20584;-81